createdAt,value
2017-08-14T00:02:20.688Z,12.60
2017-08-14T00:04:48.223Z,12.60
2017-08-14T00:07:15.782Z,12.70
2017-08-14T00:09:43.325Z,12.70
2017-08-14T00:12:10.963Z,12.80
2017-08-14T00:14:38.518Z,12.90
2017-08-14T00:17:06.094Z,13.00
2017-08-14T00:19:33.622Z,13.00
2017-08-14T00:22:01.181Z,13.10
2017-08-14T00:24:28.711Z,13.10
2017-08-14T00:26:56.234Z,13.10
2017-08-14T00:29:23.759Z,13.20
2017-08-14T00:31:51.345Z,13.20
2017-08-14T00:34:18.906Z,13.20
2017-08-14T00:36:46.474Z,13.20
2017-08-14T00:39:14.038Z,13.20
2017-08-14T00:41:41.562Z,13.20
2017-08-14T00:44:09.146Z,13.20
2017-08-14T00:46:36.715Z,13.20
2017-08-14T00:49:04.280Z,13.20
2017-08-14T00:51:31.834Z,13.20
2017-08-14T00:53:59.366Z,13.20
2017-08-14T00:56:26.963Z,13.20
2017-08-14T00:58:54.627Z,13.20
2017-08-14T01:01:22.158Z,13.20
2017-08-14T01:03:49.687Z,13.20
2017-08-14T01:06:18.031Z,13.10
2017-08-14T01:08:45.558Z,13.10
2017-08-14T01:11:13.096Z,13.10
2017-08-14T01:13:40.622Z,13.10
2017-08-14T01:16:08.273Z,13.00
2017-08-14T01:18:35.827Z,13.00
2017-08-14T01:21:03.382Z,13.00
2017-08-14T01:23:30.939Z,12.90
2017-08-14T01:25:58.503Z,12.80
2017-08-14T01:28:26.046Z,12.70
2017-08-14T01:30:53.627Z,12.70
2017-08-14T01:33:21.187Z,12.60
2017-08-14T01:35:48.720Z,12.60
2017-08-14T01:38:16.315Z,12.50
2017-08-14T01:40:43.870Z,12.50
2017-08-14T01:43:11.437Z,12.50
2017-08-14T01:45:38.966Z,12.40
2017-08-14T01:48:06.490Z,12.40
2017-08-14T01:50:34.026Z,12.30
2017-08-14T01:53:01.556Z,12.20
2017-08-14T01:55:29.095Z,12.20
2017-08-14T01:57:56.650Z,12.20
2017-08-14T02:00:24.175Z,12.20
2017-08-14T02:02:51.735Z,12.10
2017-08-14T02:05:19.263Z,12.10
2017-08-14T02:07:46.807Z,12.10
2017-08-14T02:10:14.402Z,12.00
2017-08-14T02:12:41.954Z,12.00
2017-08-14T02:15:09.486Z,12.00
2017-08-14T02:17:37.014Z,11.90
2017-08-14T02:20:04.542Z,11.80
2017-08-14T02:22:32.096Z,11.80
2017-08-14T02:24:59.648Z,11.80
2017-08-14T02:27:27.223Z,11.80
2017-08-14T02:29:54.775Z,11.80
2017-08-14T02:32:22.314Z,11.70
2017-08-14T02:34:49.868Z,11.70
2017-08-14T02:37:17.463Z,11.60
2017-08-14T02:39:45.014Z,11.60
2017-08-14T02:42:12.538Z,11.60
2017-08-14T02:44:40.102Z,11.50
2017-08-14T02:47:07.648Z,11.50
2017-08-14T02:49:35.202Z,11.50
2017-08-14T02:52:02.831Z,11.50
2017-08-14T02:54:30.403Z,11.50
2017-08-14T02:56:57.955Z,11.50
2017-08-14T02:59:25.492Z,11.50
2017-08-14T03:01:53.027Z,11.50
2017-08-14T03:04:20.573Z,11.50
2017-08-14T03:06:48.906Z,11.40
2017-08-14T03:09:16.446Z,11.40
2017-08-14T03:11:44.008Z,11.30
2017-08-14T03:14:11.586Z,11.30
2017-08-14T03:16:39.158Z,11.30
2017-08-14T03:19:06.704Z,11.30
2017-08-14T03:21:34.239Z,11.30
2017-08-14T03:24:01.783Z,11.30
2017-08-14T03:26:30.078Z,11.20
2017-08-14T03:28:57.681Z,11.20
2017-08-14T03:31:25.227Z,11.20
2017-08-14T03:33:52.755Z,11.20
2017-08-14T03:36:20.363Z,11.20
2017-08-14T03:38:47.924Z,11.10
2017-08-14T03:41:15.467Z,11.10
2017-08-14T03:43:43.042Z,11.10
2017-08-14T03:46:10.574Z,11.10
2017-08-14T03:48:38.163Z,11.10
2017-08-14T03:51:05.697Z,11.10
2017-08-14T03:53:33.238Z,11.10
2017-08-14T03:56:01.551Z,11.00
2017-08-14T03:58:29.093Z,11.00
2017-08-14T04:00:56.639Z,11.10
2017-08-14T04:03:24.243Z,11.10
2017-08-14T04:05:51.803Z,11.10
2017-08-14T04:08:19.350Z,11.00
2017-08-14T04:10:46.913Z,10.90
2017-08-14T04:13:14.479Z,11.00
2017-08-14T04:15:42.039Z,11.00
2017-08-14T04:18:09.578Z,11.00
2017-08-14T04:20:37.108Z,11.10
2017-08-14T04:23:04.651Z,11.00
2017-08-14T04:25:32.195Z,10.90
2017-08-14T04:27:59.729Z,10.90
2017-08-14T04:30:27.257Z,11.00
2017-08-14T04:32:55.555Z,11.10
2017-08-14T04:35:23.086Z,11.10
2017-08-14T04:37:51.395Z,11.10
2017-08-14T04:40:18.975Z,11.10
2017-08-14T04:42:46.535Z,11.10
2017-08-14T04:45:14.074Z,11.10
2017-08-14T04:47:41.667Z,11.10
2017-08-14T04:50:09.194Z,11.10
2017-08-14T04:52:36.761Z,11.20
2017-08-14T04:55:04.354Z,11.20
2017-08-14T04:57:32.007Z,11.20
2017-08-14T04:59:59.549Z,11.30
2017-08-14T05:02:27.096Z,11.30
2017-08-14T05:04:54.632Z,11.30
2017-08-14T05:07:22.158Z,11.40
2017-08-14T05:09:49.690Z,11.50
2017-08-14T05:12:17.236Z,11.50
2017-08-14T05:14:44.775Z,11.60
2017-08-14T05:17:12.302Z,11.60
2017-08-14T05:19:39.853Z,11.80
2017-08-14T05:22:07.382Z,12.10
2017-08-14T05:24:34.938Z,12.60
2017-08-14T05:27:02.545Z,13.30
2017-08-14T05:29:30.207Z,14.20
2017-08-14T05:31:57.763Z,15.20
2017-08-14T05:34:25.411Z,15.50
2017-08-14T05:36:52.946Z,15.60
2017-08-14T05:39:20.538Z,15.70
2017-08-14T05:41:48.099Z,15.90
2017-08-14T05:44:15.630Z,16.20
2017-08-14T05:46:43.231Z,16.60
2017-08-14T05:49:10.784Z,16.90
2017-08-14T05:51:38.318Z,17.10
2017-08-14T05:56:59.076Z,18.00
2017-08-14T05:59:26.602Z,18.50
2017-08-14T06:01:54.171Z,18.20
2017-08-14T06:04:21.702Z,18.20
2017-08-14T06:06:49.258Z,18.40
2017-08-14T06:09:17.587Z,19.10
2017-08-14T06:11:45.246Z,19.10
2017-08-14T06:14:12.807Z,18.90
2017-08-14T06:16:40.382Z,19.00
2017-08-14T06:19:07.916Z,18.70
2017-08-14T06:21:35.451Z,18.90
2017-08-14T06:24:03.782Z,19.10
2017-08-14T06:26:31.334Z,19.00
2017-08-14T06:28:58.891Z,18.90
2017-08-14T06:31:26.452Z,18.70
2017-08-14T06:33:54.019Z,18.80
2017-08-14T06:36:21.551Z,18.40
2017-08-14T06:38:49.110Z,18.70
2017-08-14T06:41:16.671Z,19.40
2017-08-14T06:43:44.261Z,19.80
2017-08-14T06:46:11.814Z,20.10
2017-08-14T06:48:39.390Z,20.30
2017-08-14T06:51:06.922Z,21.20
2017-08-14T06:53:34.507Z,21.50
2017-08-14T06:56:02.045Z,22.00
2017-08-14T06:58:29.582Z,22.40
2017-08-14T07:00:57.899Z,23.40
2017-08-14T07:03:25.435Z,23.40
2017-08-14T07:05:52.997Z,23.60
2017-08-14T07:08:20.539Z,23.30
2017-08-14T07:10:48.863Z,23.30
2017-08-14T07:13:16.388Z,23.30
2017-08-14T07:15:44.076Z,24.10
2017-08-14T07:18:11.651Z,23.40
2017-08-14T07:20:39.188Z,23.70
2017-08-14T07:23:06.715Z,23.40
2017-08-14T07:25:35.047Z,23.60
2017-08-14T07:28:02.574Z,23.60
2017-08-14T07:30:30.107Z,23.60
2017-08-14T07:32:57.735Z,24.30
2017-08-14T07:35:25.258Z,23.60
2017-08-14T07:37:52.854Z,23.80
2017-08-14T07:40:20.382Z,24.10
2017-08-14T07:42:49.135Z,24.10
2017-08-14T07:45:16.678Z,24.40
2017-08-14T07:47:44.210Z,24.50
2017-08-14T07:50:11.774Z,24.60
2017-08-14T07:52:39.306Z,23.70
2017-08-14T07:55:06.864Z,24.60
2017-08-14T07:57:34.421Z,24.80
2017-08-14T08:00:02.029Z,24.90
2017-08-14T08:02:30.331Z,25.10
2017-08-14T08:04:57.867Z,25.10
2017-08-14T08:07:25.398Z,24.90
2017-08-14T08:09:52.923Z,23.90
2017-08-14T08:12:20.454Z,23.80
2017-08-14T08:14:47.998Z,24.10
2017-08-14T08:17:15.570Z,23.90
2017-08-14T08:19:43.123Z,23.90
2017-08-14T08:22:10.682Z,24.20
2017-08-14T08:24:38.251Z,23.70
2017-08-14T08:27:05.787Z,23.90
2017-08-14T08:29:33.344Z,24.00
2017-08-14T08:32:00.866Z,24.60
2017-08-14T08:34:29.202Z,24.60
2017-08-14T08:36:56.770Z,24.60
2017-08-14T08:39:24.295Z,24.60
2017-08-14T08:41:51.826Z,24.00
2017-08-14T08:44:19.379Z,24.00
2017-08-14T08:46:47.021Z,23.90
2017-08-14T08:49:14.598Z,23.90
2017-08-14T08:51:42.966Z,23.70
2017-08-14T08:54:10.508Z,23.70
2017-08-14T08:56:38.199Z,23.70
2017-08-14T08:59:05.749Z,23.80
2017-08-14T09:01:33.410Z,23.80
2017-08-14T09:04:00.951Z,23.90
2017-08-14T09:06:28.529Z,23.20
2017-08-14T09:08:56.073Z,23.70
2017-08-14T09:11:23.648Z,23.60
2017-08-14T09:13:51.209Z,23.20
2017-08-14T09:16:18.760Z,23.50
2017-08-14T09:18:46.338Z,24.00
2017-08-14T09:21:13.897Z,24.10
2017-08-14T09:23:41.438Z,24.00
2017-08-14T09:26:08.984Z,24.00
2017-08-14T09:28:36.570Z,24.00
2017-08-14T09:31:04.135Z,24.30
2017-08-14T09:33:31.671Z,24.50
2017-08-14T09:35:59.220Z,24.80
2017-08-14T09:38:26.755Z,24.90
2017-08-14T09:40:55.073Z,24.90
2017-08-14T09:43:22.641Z,24.90
2017-08-14T09:45:50.204Z,25.00
2017-08-14T09:48:17.866Z,25.40
2017-08-14T09:50:45.442Z,25.00
2017-08-14T09:53:12.996Z,24.10
2017-08-14T09:55:40.529Z,24.40
2017-08-14T09:58:08.071Z,24.60
2017-08-14T10:00:36.407Z,24.80
2017-08-14T10:03:03.950Z,24.80
2017-08-14T10:05:31.525Z,25.20
2017-08-14T10:07:59.517Z,25.20
2017-08-14T10:10:27.055Z,25.20
2017-08-14T10:12:54.578Z,24.40
2017-08-14T10:15:22.167Z,23.90
2017-08-14T10:17:49.701Z,24.60
2017-08-14T10:20:17.283Z,24.50
2017-08-14T10:22:44.854Z,23.90
2017-08-14T10:25:12.403Z,24.00
2017-08-14T10:27:39.929Z,24.40
2017-08-14T10:30:07.495Z,24.50
2017-08-14T10:32:35.091Z,24.90
2017-08-14T10:35:02.663Z,25.00
2017-08-14T10:37:30.201Z,25.20
2017-08-14T10:39:57.731Z,24.50
2017-08-14T10:42:26.062Z,24.70
2017-08-14T10:44:53.604Z,24.70
2017-08-14T10:47:21.182Z,24.80
2017-08-14T10:49:48.712Z,24.70
2017-08-14T10:52:16.275Z,24.90
2017-08-14T10:54:43.864Z,25.20
2017-08-14T10:57:11.529Z,25.10
2017-08-14T10:59:39.068Z,25.00
2017-08-14T11:02:06.649Z,24.80
2017-08-14T11:04:34.178Z,24.40
2017-08-14T11:07:01.712Z,23.80
2017-08-14T11:09:30.019Z,24.50
2017-08-14T11:11:57.555Z,24.50
2017-08-14T11:14:25.886Z,24.90
2017-08-14T11:16:53.415Z,25.00
2017-08-14T11:19:20.999Z,24.70
2017-08-14T11:21:48.568Z,24.30
2017-08-14T11:24:16.319Z,24.30
2017-08-14T11:26:43.860Z,24.50
2017-08-14T11:29:11.432Z,25.10
2017-08-14T11:31:38.964Z,25.40
2017-08-14T11:34:06.550Z,24.70
2017-08-14T11:36:34.082Z,23.70
2017-08-14T11:39:02.435Z,24.10
2017-08-14T11:41:30.077Z,24.00
2017-08-14T11:43:57.731Z,24.00
2017-08-14T11:46:25.299Z,23.60
2017-08-14T11:48:53.053Z,23.90
2017-08-14T11:51:20.586Z,23.70
2017-08-14T11:53:48.221Z,23.40
2017-08-14T11:56:15.843Z,23.30
2017-08-14T11:58:43.385Z,23.30
2017-08-14T12:01:10.979Z,23.70
2017-08-14T12:03:38.519Z,24.10
2017-08-14T12:06:06.082Z,24.30
2017-08-14T12:08:33.615Z,24.50
2017-08-14T12:11:01.199Z,23.70
2017-08-14T12:13:28.771Z,24.30
2017-08-14T12:15:56.431Z,24.40
2017-08-14T12:18:23.962Z,25.00
2017-08-14T12:20:51.514Z,24.80
2017-08-14T12:23:19.054Z,24.50
2017-08-14T12:25:46.627Z,24.60
2017-08-14T12:28:14.158Z,24.50
2017-08-14T12:30:41.724Z,24.80
2017-08-14T12:33:09.258Z,24.90
2017-08-14T12:35:36.842Z,24.60
2017-08-14T12:38:04.491Z,24.30
2017-08-14T12:40:32.018Z,23.90
2017-08-14T12:42:59.611Z,23.50
2017-08-14T12:45:27.170Z,23.60
2017-08-14T12:47:54.703Z,23.80
2017-08-14T12:50:22.240Z,24.10
2017-08-14T12:52:50.571Z,24.90
2017-08-14T12:55:18.106Z,24.90
2017-08-14T12:57:45.690Z,25.20
2017-08-14T13:00:13.339Z,25.30
2017-08-14T13:02:40.916Z,25.20
2017-08-14T13:05:08.447Z,25.30
2017-08-14T13:07:35.984Z,25.50
2017-08-14T13:10:04.279Z,25.00
2017-08-14T13:12:31.867Z,25.00
2017-08-14T13:14:59.398Z,24.50
2017-08-14T13:17:26.930Z,24.50
2017-08-14T13:19:54.546Z,24.80
2017-08-14T13:22:22.091Z,24.90
2017-08-14T13:24:49.674Z,24.90
2017-08-14T13:27:17.202Z,24.90
2017-08-14T13:29:44.799Z,24.90
2017-08-14T13:32:12.326Z,24.70
2017-08-14T13:34:39.914Z,24.10
2017-08-14T13:37:07.471Z,23.90
2017-08-14T13:39:35.042Z,23.80
2017-08-14T13:42:02.574Z,24.20
2017-08-14T13:44:30.167Z,24.70
2017-08-14T13:46:57.718Z,25.10
2017-08-14T13:49:25.287Z,25.10
2017-08-14T13:51:52.846Z,25.00
2017-08-14T13:54:20.369Z,24.70
2017-08-14T13:56:47.905Z,24.60
2017-08-14T13:59:15.528Z,24.80
2017-08-14T14:01:43.064Z,24.90
2017-08-14T14:04:10.603Z,24.90
2017-08-14T14:06:38.923Z,25.10
2017-08-14T14:09:06.493Z,25.10
2017-08-14T14:11:34.055Z,24.90
2017-08-14T14:14:01.591Z,24.50
2017-08-14T14:16:29.172Z,24.20
2017-08-14T14:18:56.702Z,24.20
2017-08-14T14:21:25.127Z,24.00
2017-08-14T14:23:52.671Z,24.00
2017-08-14T14:26:20.231Z,23.90
2017-08-14T14:28:47.790Z,23.80
2017-08-14T14:31:15.443Z,23.70
2017-08-14T14:33:42.984Z,23.90
2017-08-14T14:36:10.513Z,23.90
2017-08-14T14:38:38.043Z,23.90
2017-08-14T14:41:05.594Z,23.70
2017-08-14T14:43:33.269Z,23.80
2017-08-14T14:46:01.218Z,24.20
2017-08-14T14:48:28.888Z,24.40
2017-08-14T14:50:56.425Z,24.60
2017-08-14T14:53:23.967Z,24.80
2017-08-14T14:55:51.568Z,25.00
2017-08-14T14:58:19.124Z,25.00
2017-08-14T15:00:52.836Z,25.00
2017-08-14T15:03:20.378Z,25.10
2017-08-14T15:05:48.730Z,24.90
2017-08-14T15:08:16.256Z,24.90
2017-08-14T15:10:43.900Z,25.30
2017-08-14T15:13:11.460Z,24.90
2017-08-14T15:15:39.017Z,24.40
2017-08-14T15:18:06.583Z,24.50
2017-08-14T15:20:34.247Z,24.50
2017-08-14T15:23:01.811Z,24.50
2017-08-14T15:25:29.375Z,24.40
2017-08-14T15:27:56.917Z,24.60
2017-08-14T15:30:24.447Z,24.50
2017-08-14T15:32:51.982Z,24.50
2017-08-14T15:35:19.539Z,24.40
2017-08-14T15:37:47.082Z,24.50
2017-08-14T15:40:14.619Z,24.40
2017-08-14T15:42:42.175Z,24.50
2017-08-14T15:45:09.701Z,24.50
2017-08-14T15:47:38.127Z,24.60
2017-08-14T15:50:05.654Z,24.50
2017-08-14T15:52:33.210Z,24.60
2017-08-14T15:55:00.754Z,24.60
2017-08-14T15:57:29.186Z,24.60
2017-08-14T15:59:56.755Z,24.60
2017-08-14T16:02:24.320Z,24.50
2017-08-14T16:04:51.873Z,24.60
2017-08-14T16:07:19.437Z,24.50
2017-08-14T16:09:46.995Z,24.50
2017-08-14T16:12:14.571Z,24.40
2017-08-14T16:14:42.098Z,24.40
2017-08-14T16:17:09.790Z,24.30
2017-08-14T16:19:46.191Z,24.10
2017-08-14T16:22:14.535Z,23.80
2017-08-14T16:24:42.103Z,23.80
2017-08-14T16:27:09.641Z,23.80
2017-08-14T16:29:37.207Z,23.70
2017-08-14T16:32:04.795Z,23.70
2017-08-14T16:34:32.430Z,23.70
2017-08-14T16:36:59.995Z,23.70
2017-08-14T16:39:27.535Z,23.60
2017-08-14T16:41:55.115Z,23.50
2017-08-14T16:44:22.651Z,23.40
2017-08-14T16:46:50.209Z,23.40
2017-08-14T16:49:17.795Z,23.40
2017-08-14T16:51:45.366Z,23.40
2017-08-14T16:54:12.934Z,23.20
2017-08-14T16:56:40.594Z,23.20
2017-08-14T16:59:08.149Z,23.10
2017-08-14T17:01:35.699Z,23.20
2017-08-14T17:04:03.236Z,23.00
2017-08-14T17:06:30.824Z,23.00
2017-08-14T17:08:58.359Z,22.90
2017-08-14T17:11:25.959Z,22.90
2017-08-14T17:13:53.514Z,22.80
2017-08-14T17:16:21.074Z,22.70
2017-08-14T17:18:48.603Z,22.60
2017-08-14T17:21:16.141Z,22.60
2017-08-14T17:23:44.471Z,22.50
2017-08-14T17:26:12.026Z,22.40
2017-08-14T17:28:39.582Z,22.40
2017-08-14T17:31:07.121Z,22.40
2017-08-14T17:33:34.721Z,22.30
2017-08-14T17:36:02.267Z,22.30
2017-08-14T17:38:29.938Z,22.30
2017-08-14T17:40:57.495Z,22.20
2017-08-14T17:43:34.899Z,22.10
2017-08-14T17:46:02.438Z,22.10
2017-08-14T17:48:30.005Z,22.00
2017-08-14T17:50:57.538Z,22.00
2017-08-14T17:53:25.116Z,21.90
2017-08-14T17:55:52.659Z,21.80
2017-08-14T17:58:20.254Z,22.00
2017-08-14T18:00:47.840Z,22.00
2017-08-14T18:03:15.400Z,22.00
2017-08-14T18:05:42.959Z,21.90
2017-08-14T18:08:10.527Z,21.80
2017-08-14T18:10:38.071Z,21.80
2017-08-14T18:13:05.606Z,21.90
2017-08-14T18:15:33.143Z,21.80
2017-08-14T18:18:00.761Z,21.90
2017-08-14T18:20:28.415Z,22.00
2017-08-14T18:22:55.967Z,22.00
2017-08-14T18:25:23.540Z,21.90
2017-08-14T18:27:51.238Z,21.80
2017-08-14T18:30:18.915Z,21.90
2017-08-14T18:32:46.472Z,22.00
2017-08-14T18:35:14.807Z,21.90
2017-08-14T18:37:42.469Z,21.90
2017-08-14T18:40:10.127Z,21.80
2017-08-14T18:42:37.673Z,21.70
2017-08-14T18:45:05.252Z,21.80
2017-08-14T18:47:32.797Z,21.70
2017-08-14T18:50:00.377Z,21.70
2017-08-14T18:52:27.937Z,21.80
2017-08-14T18:54:55.476Z,21.80
2017-08-14T18:57:23.018Z,21.60
2017-08-14T18:59:50.570Z,21.60
2017-08-14T19:02:18.120Z,21.70
2017-08-14T19:04:45.673Z,21.70
2017-08-14T19:07:13.223Z,21.60
2017-08-14T19:09:42.100Z,21.50
2017-08-14T19:12:08.395Z,21.50
2017-08-14T19:14:35.955Z,21.60
2017-08-14T19:17:03.496Z,21.50
2017-08-14T19:19:31.041Z,21.50
2017-08-14T19:21:59.360Z,21.50
2017-08-14T19:24:26.921Z,21.40
2017-08-14T19:26:54.496Z,21.50
2017-08-14T19:29:22.041Z,21.40
2017-08-14T19:31:49.628Z,21.30
2017-08-14T19:34:17.214Z,21.30
2017-08-14T19:36:44.762Z,21.20
2017-08-14T19:39:12.325Z,21.20
2017-08-14T19:41:39.878Z,21.20
2017-08-14T19:44:07.427Z,21.10
2017-08-14T19:46:34.993Z,21.10
2017-08-14T19:49:02.559Z,21.00
2017-08-14T19:51:30.217Z,21.00
2017-08-14T19:53:57.767Z,20.90
2017-08-14T19:56:25.318Z,20.80
2017-08-14T19:58:52.873Z,20.80
2017-08-14T20:01:20.417Z,20.80
2017-08-14T20:03:48.021Z,20.70
2017-08-14T20:06:15.582Z,20.70
2017-08-14T20:08:43.149Z,20.60
2017-08-14T20:11:10.716Z,20.50
2017-08-14T20:13:38.260Z,20.40
2017-08-14T20:16:05.832Z,20.40
2017-08-14T20:18:33.386Z,20.40
2017-08-14T20:21:00.946Z,20.30
2017-08-14T20:23:28.501Z,20.20
2017-08-14T20:25:56.042Z,20.30
2017-08-14T20:28:23.589Z,20.20
2017-08-14T20:30:51.165Z,20.20
2017-08-14T20:33:18.719Z,20.20
2017-08-14T20:35:46.269Z,20.10
2017-08-14T20:38:13.858Z,20.10
2017-08-14T20:40:41.430Z,20.10
2017-08-14T20:43:08.973Z,20.10
2017-08-14T20:45:36.565Z,20.10
2017-08-14T20:48:04.327Z,20.00
2017-08-14T20:50:31.878Z,20.00
2017-08-14T20:52:59.423Z,20.00
2017-08-14T20:55:26.972Z,19.90
2017-08-14T20:57:54.558Z,19.90
2017-08-14T21:00:22.103Z,19.90
2017-08-14T21:02:49.681Z,19.90
2017-08-14T21:05:17.239Z,19.80
2017-08-14T21:07:44.789Z,19.80
2017-08-14T21:10:12.355Z,19.80
2017-08-14T21:12:40.007Z,19.70
2017-08-14T21:15:07.567Z,19.70
2017-08-14T21:17:35.134Z,19.70
2017-08-14T21:20:02.693Z,19.60
2017-08-14T21:22:30.269Z,19.60
2017-08-14T21:24:57.827Z,19.60
2017-08-14T21:27:25.397Z,19.50
2017-08-14T21:29:52.937Z,19.50
2017-08-14T21:32:20.513Z,19.50
2017-08-14T21:34:48.074Z,19.50
2017-08-14T21:37:15.637Z,19.50
2017-08-14T21:39:43.217Z,19.60
2017-08-14T21:42:10.751Z,19.50
2017-08-14T21:44:38.412Z,19.50
2017-08-14T21:47:05.970Z,19.40
2017-08-14T21:49:33.635Z,19.40
2017-08-14T21:52:01.194Z,19.40
2017-08-14T21:54:28.846Z,19.40
2017-08-14T21:56:56.438Z,19.50
2017-08-14T21:59:24.007Z,19.50
2017-08-14T22:01:51.534Z,19.40
2017-08-14T22:04:19.078Z,19.40
2017-08-14T22:06:46.752Z,19.40
2017-08-14T22:09:14.283Z,19.40
2017-08-14T22:11:41.822Z,19.40
2017-08-14T22:14:09.349Z,19.40
2017-08-14T22:19:29.882Z,19.30
2017-08-14T22:21:57.445Z,19.30
2017-08-14T22:24:24.974Z,19.30
2017-08-14T22:26:52.548Z,19.20
2017-08-14T22:29:20.078Z,19.20
2017-08-14T22:31:47.648Z,19.30
2017-08-14T22:34:15.182Z,19.30
2017-08-14T22:36:43.603Z,19.30
2017-08-14T22:39:11.162Z,19.20
2017-08-14T22:41:38.735Z,19.30
2017-08-14T22:44:06.271Z,19.30
2017-08-14T22:46:33.846Z,19.30
2017-08-14T22:49:01.411Z,19.30
2017-08-14T22:51:28.968Z,19.30
2017-08-14T22:53:56.539Z,19.30
2017-08-14T22:56:24.070Z,19.30
2017-08-14T22:58:51.630Z,19.20
2017-08-14T23:01:19.223Z,19.20
2017-08-14T23:03:46.779Z,19.20
2017-08-14T23:06:14.329Z,19.20
2017-08-14T23:08:42.023Z,19.20
2017-08-14T23:11:09.654Z,19.20
2017-08-14T23:13:37.223Z,19.20
2017-08-14T23:16:04.747Z,19.20
2017-08-14T23:18:32.313Z,19.20
2017-08-14T23:20:59.838Z,19.20
2017-08-14T23:23:27.372Z,19.20
2017-08-14T23:25:54.932Z,19.10
2017-08-14T23:28:22.470Z,19.10
2017-08-14T23:30:49.998Z,19.10
2017-08-14T23:33:17.564Z,19.10
2017-08-14T23:35:45.123Z,19.00
2017-08-14T23:38:13.451Z,19.00
2017-08-14T23:40:40.983Z,19.00
2017-08-14T23:43:08.514Z,19.00
2017-08-14T23:45:36.059Z,19.00
2017-08-14T23:48:03.591Z,19.00
2017-08-14T23:50:31.123Z,18.90
2017-08-14T23:52:58.663Z,18.90
2017-08-14T23:55:26.231Z,18.90
2017-08-14T23:57:53.766Z,18.90
